createdAt,value
2022-11-09T00:02:22.479Z,9.65
2022-11-09T00:05:15.429Z,9.61
2022-11-09T00:08:13.895Z,9.58
2022-11-09T00:11:10.834Z,9.53
2022-11-09T00:14:03.180Z,9.50
2022-11-09T00:16:57.060Z,9.46
2022-11-09T00:19:48.678Z,9.44
2022-11-09T00:22:41.121Z,9.40
2022-11-09T00:25:34.503Z,9.36
2022-11-09T00:28:24.773Z,9.29
2022-11-09T00:31:18.494Z,9.21
2022-11-09T00:34:11.096Z,9.12
2022-11-09T00:37:01.483Z,9.01
2022-11-09T00:39:54.393Z,8.94
2022-11-09T00:42:46.711Z,8.89
2022-11-09T00:45:41.852Z,8.87
2022-11-09T00:48:34.265Z,8.83
2022-11-09T00:51:26.965Z,8.77
2022-11-09T00:54:19.307Z,8.74
2022-11-09T00:57:11.458Z,8.70
2022-11-09T01:00:04.353Z,8.62
2022-11-09T01:02:56.243Z,8.56
2022-11-09T01:05:50.901Z,8.54
2022-11-09T01:08:44.322Z,8.53
2022-11-09T01:11:36.713Z,8.50
2022-11-09T01:14:30.025Z,8.49
2022-11-09T01:17:22.630Z,8.50
2022-11-09T01:20:15.484Z,8.51
2022-11-09T01:23:07.706Z,8.53
2022-11-09T01:26:04.545Z,8.55
2022-11-09T01:28:56.718Z,8.55
2022-11-09T01:31:50.561Z,8.57
2022-11-09T01:34:42.610Z,8.58
2022-11-09T01:37:35.033Z,8.59
2022-11-09T01:40:28.362Z,8.60
2022-11-09T01:43:23.206Z,8.60
2022-11-09T01:46:22.169Z,8.61
2022-11-09T01:49:20.890Z,8.61
2022-11-09T01:52:18.647Z,8.61
2022-11-09T01:55:13.540Z,8.60
2022-11-09T01:58:11.569Z,8.59
2022-11-09T02:01:05.319Z,8.58
2022-11-09T02:04:03.194Z,8.57
2022-11-09T02:06:57.977Z,8.56
2022-11-09T02:09:55.879Z,8.54
2022-11-09T02:12:48.626Z,8.51
2022-11-09T02:15:45.675Z,8.50
2022-11-09T02:18:41.013Z,8.47
2022-11-09T02:21:34.077Z,8.44
2022-11-09T02:24:27.315Z,8.42
2022-11-09T02:27:20.159Z,8.39
2022-11-09T02:30:16.425Z,8.36
2022-11-09T02:33:08.356Z,8.33
2022-11-09T02:36:00.182Z,8.30
2022-11-09T02:38:54.362Z,8.28
2022-11-09T02:41:49.859Z,8.25
2022-11-09T02:44:45.192Z,8.20
2022-11-09T02:47:37.108Z,8.20
2022-11-09T02:50:30.979Z,8.17
2022-11-09T02:53:25.062Z,8.13
2022-11-09T02:56:17.933Z,8.07
2022-11-09T02:59:10.756Z,8.06
2022-11-09T03:02:04.433Z,8.02
2022-11-09T03:04:57.055Z,7.98
2022-11-09T03:07:50.335Z,7.95
2022-11-09T03:10:42.981Z,7.92
2022-11-09T03:13:34.778Z,7.88
2022-11-09T03:16:27.457Z,7.83
2022-11-09T03:19:20.098Z,7.76
2022-11-09T03:22:14.144Z,7.71
2022-11-09T03:25:08.173Z,7.67
2022-11-09T03:28:03.909Z,7.64
2022-11-09T03:30:56.312Z,7.59
2022-11-09T03:33:49.269Z,7.57
2022-11-09T03:36:41.502Z,7.53
2022-11-09T03:39:34.155Z,7.47
2022-11-09T03:42:25.977Z,7.43
2022-11-09T03:45:19.545Z,7.40
2022-11-09T03:48:11.983Z,7.37
2022-11-09T03:51:03.144Z,7.33
2022-11-09T03:53:55.640Z,7.30
2022-11-09T03:56:47.982Z,7.28
2022-11-09T03:59:40.007Z,7.25
2022-11-09T04:02:31.843Z,7.21
2022-11-09T04:05:24.166Z,7.18
2022-11-09T04:08:17.332Z,7.14
2022-11-09T04:11:09.567Z,7.10
2022-11-09T04:14:02.009Z,7.08
2022-11-09T04:16:54.817Z,7.04
2022-11-09T04:19:46.696Z,6.99
2022-11-09T04:22:39.741Z,6.93
2022-11-09T04:25:31.153Z,6.87
2022-11-09T04:28:22.807Z,6.81
2022-11-09T04:31:14.463Z,6.77
2022-11-09T04:34:07.104Z,6.72
2022-11-09T04:36:59.516Z,6.68
2022-11-09T04:39:52.130Z,6.62
2022-11-09T04:42:44.011Z,6.54
2022-11-09T04:45:36.892Z,6.54
2022-11-09T04:48:26.998Z,6.51
2022-11-09T04:51:19.234Z,6.46
2022-11-09T04:54:12.085Z,6.43
2022-11-09T04:57:03.907Z,6.42
2022-11-09T04:59:56.352Z,6.38
2022-11-09T05:02:48.275Z,6.37
2022-11-09T05:05:48.000Z,6.35
2022-11-09T05:08:40.919Z,6.33
2022-11-09T05:11:33.998Z,6.30
2022-11-09T05:14:26.044Z,6.29
2022-11-09T05:17:19.193Z,6.26
2022-11-09T05:20:12.072Z,6.23
2022-11-09T05:23:22.446Z,6.20
2022-11-09T05:26:16.685Z,6.19
2022-11-09T05:29:10.577Z,6.16
2022-11-09T05:32:03.011Z,6.14
2022-11-09T05:34:55.267Z,6.12
2022-11-09T05:37:50.495Z,6.12
2022-11-09T05:40:43.161Z,6.10
2022-11-09T05:43:35.445Z,6.09
2022-11-09T05:46:27.363Z,6.09
2022-11-09T05:49:19.837Z,6.08
2022-11-09T05:52:12.321Z,6.11
2022-11-09T05:55:03.951Z,6.12
2022-11-09T05:57:57.558Z,6.13
2022-11-09T06:00:49.975Z,6.15
2022-11-09T06:03:44.487Z,6.18
2022-11-09T06:06:36.414Z,6.21
2022-11-09T06:09:29.193Z,6.24
2022-11-09T06:12:22.705Z,6.28
2022-11-09T06:15:16.476Z,6.31
2022-11-09T06:18:08.505Z,6.36
2022-11-09T06:21:03.363Z,6.42
2022-11-09T06:23:55.839Z,6.48
2022-11-09T06:26:47.732Z,6.52
2022-11-09T06:29:40.525Z,6.58
2022-11-09T06:32:33.106Z,6.65
2022-11-09T06:35:25.814Z,6.70
2022-11-09T06:38:17.636Z,6.75
2022-11-09T06:41:12.702Z,6.82
2022-11-09T06:44:05.806Z,6.89
2022-11-09T06:46:58.041Z,6.95
2022-11-09T06:49:49.864Z,7.01
2022-11-09T06:52:42.307Z,7.09
2022-11-09T06:55:35.552Z,7.15
2022-11-09T06:58:29.469Z,7.23
2022-11-09T07:01:29.076Z,7.31
2022-11-09T07:04:21.081Z,7.40
2022-11-09T07:07:13.344Z,7.47
2022-11-09T07:10:04.528Z,7.55
2022-11-09T07:12:59.926Z,7.64
2022-11-09T07:15:56.600Z,7.75
2022-11-09T07:18:49.204Z,7.83
2022-11-09T07:21:41.681Z,7.91
2022-11-09T07:24:35.100Z,7.99
2022-11-09T07:27:28.406Z,8.12
2022-11-09T07:30:22.458Z,8.22
2022-11-09T07:33:19.440Z,8.33
2022-11-09T07:36:18.249Z,8.43
2022-11-09T07:39:13.229Z,8.54
2022-11-09T07:42:05.549Z,8.64
2022-11-09T07:44:58.066Z,8.76
2022-11-09T07:47:49.821Z,8.89
2022-11-09T07:50:42.776Z,9.02
2022-11-09T07:53:35.168Z,9.15
2022-11-09T07:56:26.931Z,9.27
2022-11-09T07:59:19.578Z,9.40
2022-11-09T08:02:12.856Z,9.53
2022-11-09T08:05:06.164Z,9.64
2022-11-09T08:08:02.336Z,9.74
2022-11-09T08:10:54.876Z,9.86
2022-11-09T08:13:45.419Z,9.97
2022-11-09T08:16:38.043Z,10.10
2022-11-09T08:19:30.350Z,10.21
2022-11-09T08:22:22.792Z,10.34
2022-11-09T08:25:16.799Z,10.48
2022-11-09T08:28:14.524Z,10.61
2022-11-09T08:31:10.739Z,10.74
2022-11-09T08:34:03.165Z,10.86
2022-11-09T08:36:54.009Z,10.97
2022-11-09T08:39:46.245Z,11.07
2022-11-09T08:42:38.988Z,11.22
2022-11-09T08:45:31.536Z,11.33
2022-11-09T08:48:24.599Z,11.48
2022-11-09T08:51:17.647Z,11.62
2022-11-09T08:54:11.728Z,11.76
2022-11-09T08:57:03.554Z,11.88
2022-11-09T08:59:54.360Z,11.96
2022-11-09T09:02:46.583Z,12.07
2022-11-09T09:05:38.830Z,12.18
2022-11-09T09:08:31.275Z,12.27
2022-11-09T09:11:24.124Z,12.35
2022-11-09T09:14:16.572Z,12.44
2022-11-09T09:17:08.763Z,12.57
2022-11-09T09:20:00.627Z,12.66
2022-11-09T09:22:52.473Z,12.80
2022-11-09T09:25:45.150Z,12.93
2022-11-09T09:28:39.138Z,13.05
2022-11-09T09:31:29.774Z,13.17
2022-11-09T09:34:24.600Z,13.29
2022-11-09T09:37:17.561Z,13.40
2022-11-09T09:40:25.805Z,13.45
2022-11-09T09:43:27.555Z,13.54
2022-11-09T09:46:24.857Z,13.66
2022-11-09T09:49:23.745Z,13.79
2022-11-09T09:52:23.025Z,13.90
2022-11-09T09:55:31.335Z,13.96
2022-11-09T09:58:28.664Z,14.07
2022-11-09T10:01:22.483Z,14.20
2022-11-09T10:04:23.278Z,14.31
2022-11-09T10:07:30.210Z,14.39
2022-11-09T10:10:39.032Z,14.51
2022-11-09T10:13:50.378Z,14.60
2022-11-09T10:16:52.381Z,14.71
2022-11-09T10:19:59.567Z,14.80
2022-11-09T10:23:10.033Z,14.92
2022-11-09T10:26:08.915Z,15.04
2022-11-09T10:29:18.540Z,15.13
2022-11-09T10:32:16.573Z,15.20
2022-11-09T10:35:22.190Z,15.23
2022-11-09T10:38:22.520Z,15.30
2022-11-09T10:41:41.275Z,15.41
2022-11-09T10:44:54.280Z,15.52
2022-11-09T10:48:06.296Z,15.61
2022-11-09T10:51:41.956Z,15.65
2022-11-09T10:54:40.334Z,15.74
2022-11-09T10:57:57.689Z,15.82
2022-11-09T11:01:15.631Z,15.88
2022-11-09T11:04:27.738Z,15.95
2022-11-09T11:07:37.547Z,16.03
2022-11-09T11:10:49.188Z,16.09
2022-11-09T11:14:19.967Z,16.17
2022-11-09T11:17:41.118Z,16.25
2022-11-09T11:21:06.102Z,16.35
2022-11-09T11:24:20.097Z,16.40
2022-11-09T11:27:38.290Z,16.45
2022-11-09T11:30:49.239Z,16.51
2022-11-09T11:34:03.630Z,16.57
2022-11-09T11:37:31.392Z,16.66
2022-11-09T11:40:52.299Z,16.77
2022-11-09T11:44:14.876Z,16.83
2022-11-09T11:47:34.156Z,16.92
2022-11-09T11:50:51.950Z,17.01
2022-11-09T11:54:15.462Z,17.01
2022-11-09T11:57:33.155Z,17.04
2022-11-09T12:00:53.858Z,17.11
2022-11-09T12:04:18.045Z,17.17
2022-11-09T12:07:38.096Z,17.25
2022-11-09T12:11:00.271Z,17.31
2022-11-09T12:14:25.480Z,17.38
2022-11-09T12:17:47.207Z,17.42
2022-11-09T12:21:06.683Z,17.45
2022-11-09T12:24:29.230Z,17.49
2022-11-09T12:30:49.526Z,17.58
2022-11-09T12:34:07.791Z,17.66
2022-11-09T12:37:25.017Z,17.67
2022-11-09T12:40:44.492Z,17.67
2022-11-09T12:43:59.667Z,17.67
2022-11-09T12:47:16.794Z,17.69
2022-11-09T12:50:29.755Z,17.71
2022-11-09T12:53:42.366Z,17.74
2022-11-09T12:56:58.169Z,17.77
2022-11-09T13:00:33.965Z,17.78
2022-11-09T13:03:57.635Z,17.78
2022-11-09T13:07:32.884Z,17.80
2022-11-09T13:10:44.531Z,17.84
2022-11-09T13:14:14.917Z,17.84
2022-11-09T13:18:02.453Z,17.84
2022-11-09T13:21:37.916Z,17.84
2022-11-09T13:24:59.924Z,17.82
2022-11-09T13:28:46.430Z,17.81
2022-11-09T13:32:07.095Z,17.77
2022-11-09T13:35:51.596Z,17.74
2022-11-09T13:39:17.420Z,17.70
2022-11-09T13:42:35.004Z,17.64
2022-11-09T13:45:48.493Z,17.58
2022-11-09T13:49:00.726Z,17.54
2022-11-09T13:52:47.402Z,17.49
2022-11-09T13:55:59.146Z,17.43
2022-11-09T13:59:18.665Z,17.37
2022-11-09T14:02:30.735Z,17.29
2022-11-09T14:05:42.082Z,17.22
2022-11-09T14:08:53.444Z,17.17
2022-11-09T14:12:18.380Z,17.10
2022-11-09T14:15:41.608Z,17.04
2022-11-09T14:19:06.211Z,16.96
2022-11-09T14:22:20.366Z,16.90
2022-11-09T14:25:36.965Z,16.82
2022-11-09T14:28:47.903Z,16.74
2022-11-09T14:31:58.760Z,16.65
2022-11-09T14:35:23.338Z,16.57
2022-11-09T14:38:36.800Z,16.48
2022-11-09T14:41:49.017Z,16.39
2022-11-09T14:45:01.174Z,16.29
2022-11-09T14:48:18.375Z,16.18
2022-11-09T14:51:35.083Z,16.06
2022-11-09T14:54:48.972Z,15.94
2022-11-09T14:58:00.714Z,15.83
2022-11-09T15:01:23.265Z,15.72
2022-11-09T15:04:52.366Z,15.59
2022-11-09T15:08:04.103Z,15.46
2022-11-09T15:11:15.954Z,15.31
2022-11-09T15:14:33.283Z,15.20
2022-11-09T15:17:49.207Z,15.06
2022-11-09T15:21:17.259Z,14.93
2022-11-09T15:24:30.736Z,14.78
2022-11-09T15:27:41.417Z,14.63
2022-11-09T15:31:08.503Z,14.48
2022-11-09T15:34:26.238Z,14.34
2022-11-09T15:37:53.784Z,14.19
2022-11-09T15:41:11.229Z,14.03
2022-11-09T15:44:22.417Z,13.89
2022-11-09T15:47:36.925Z,13.76
2022-11-09T15:50:50.317Z,13.63
2022-11-09T15:54:00.724Z,13.49
2022-11-09T15:57:19.529Z,13.37
2022-11-09T16:00:31.633Z,13.24
2022-11-09T16:03:42.960Z,13.13
2022-11-09T16:06:54.006Z,13.01
2022-11-09T16:10:05.966Z,12.91
2022-11-09T16:13:16.397Z,12.81
2022-11-09T16:16:27.495Z,12.68
2022-11-09T16:19:43.352Z,12.56
2022-11-09T16:22:54.751Z,12.45
2022-11-09T16:26:10.209Z,12.34
2022-11-09T16:29:21.982Z,12.23
2022-11-09T16:32:33.461Z,12.13
2022-11-09T16:35:45.289Z,12.02
2022-11-09T16:38:58.734Z,11.93
2022-11-09T16:42:09.618Z,11.83
2022-11-09T16:45:21.787Z,11.72
2022-11-09T16:48:35.959Z,11.63
2022-11-09T16:51:47.099Z,11.56
2022-11-09T16:54:58.799Z,11.48
2022-11-09T16:58:10.869Z,11.42
2022-11-09T17:01:23.661Z,11.36
2022-11-09T17:04:34.478Z,11.28
2022-11-09T17:07:45.560Z,11.21
2022-11-09T17:10:57.266Z,11.15
2022-11-09T17:14:08.042Z,11.09
2022-11-09T17:17:22.653Z,11.02
2022-11-09T17:20:34.785Z,10.94
2022-11-09T17:23:46.601Z,10.88
2022-11-09T17:26:58.559Z,10.82
2022-11-09T17:30:12.354Z,10.74
2022-11-09T17:33:24.915Z,10.67
2022-11-09T17:37:02.321Z,10.60
2022-11-09T17:40:09.570Z,10.53
2022-11-09T17:43:22.244Z,10.45
2022-11-09T17:46:33.080Z,10.39
2022-11-09T17:49:44.350Z,10.33
2022-11-09T17:52:55.322Z,10.25
2022-11-09T17:56:09.888Z,10.17
2022-11-09T17:59:20.348Z,10.09
2022-11-09T18:02:31.835Z,10.02
2022-11-09T18:05:43.741Z,9.97
2022-11-09T18:09:26.800Z,9.92
2022-11-09T18:12:26.692Z,9.85
2022-11-09T18:15:39.681Z,9.80
2022-11-09T18:18:50.310Z,9.74
2022-11-09T18:22:02.977Z,9.68
2022-11-09T18:25:16.235Z,9.62
2022-11-09T18:28:28.041Z,9.56
2022-11-09T18:31:39.145Z,9.50
2022-11-09T18:34:51.019Z,9.45
2022-11-09T18:38:01.978Z,9.39
2022-11-09T18:41:15.589Z,9.34
2022-11-09T18:44:26.692Z,9.28
2022-11-09T18:47:37.785Z,9.21
2022-11-09T18:50:53.777Z,9.16
2022-11-09T18:54:04.661Z,9.10
2022-11-09T18:57:19.647Z,9.05
2022-11-09T19:00:30.543Z,8.98
2022-11-09T19:03:41.789Z,8.93
2022-11-09T19:06:54.533Z,8.87
2022-11-09T19:10:06.802Z,8.82
2022-11-09T19:13:18.916Z,8.77
2022-11-09T19:16:30.640Z,8.72
2022-11-09T19:19:42.487Z,8.65
2022-11-09T19:22:53.363Z,8.59
2022-11-09T19:26:05.327Z,8.54
2022-11-09T19:29:18.100Z,8.50
2022-11-09T19:32:29.924Z,8.46
2022-11-09T19:35:40.946Z,8.40
2022-11-09T19:38:52.895Z,8.33
2022-11-09T19:42:04.640Z,8.28
2022-11-09T19:45:16.023Z,8.24
2022-11-09T19:48:28.665Z,8.19
2022-11-09T19:51:40.638Z,8.15
2022-11-09T19:54:51.612Z,8.10
2022-11-09T19:58:02.589Z,8.05
2022-11-09T20:01:14.939Z,7.98
2022-11-09T20:04:26.366Z,7.93
2022-11-09T20:07:38.121Z,7.89
2022-11-09T20:10:49.401Z,7.86
2022-11-09T20:14:00.437Z,7.81
2022-11-09T20:17:11.176Z,7.79
2022-11-09T20:20:22.399Z,7.75
2022-11-09T20:23:33.862Z,7.71
2022-11-09T20:26:45.565Z,7.68
2022-11-09T20:29:56.970Z,7.62
2022-11-09T20:33:09.786Z,7.58
2022-11-09T20:36:21.463Z,7.58
2022-11-09T20:39:32.948Z,7.53
2022-11-09T20:42:44.080Z,7.52
2022-11-09T20:45:55.171Z,7.48
2022-11-09T20:49:06.588Z,7.45
2022-11-09T20:52:18.569Z,7.43
2022-11-09T20:55:30.647Z,7.40
2022-11-09T20:58:41.750Z,7.34
2022-11-09T21:01:53.537Z,7.32
2022-11-09T21:05:05.256Z,7.28
2022-11-09T21:08:16.336Z,7.26
2022-11-09T21:11:29.088Z,7.22
2022-11-09T21:14:39.822Z,7.19
2022-11-09T21:17:52.745Z,7.14
2022-11-09T21:21:09.777Z,7.10
2022-11-09T21:24:38.550Z,7.05
2022-11-09T21:28:07.038Z,7.01
2022-11-09T21:31:18.388Z,6.98
2022-11-09T21:34:35.390Z,6.96
2022-11-09T21:37:47.909Z,6.93
2022-11-09T21:41:23.502Z,6.89
2022-11-09T21:44:35.223Z,6.86
2022-11-09T21:47:47.138Z,6.82
2022-11-09T21:51:00.724Z,6.80
2022-11-09T21:54:12.490Z,6.75
2022-11-09T21:57:23.661Z,6.73
2022-11-09T22:00:34.537Z,6.69
2022-11-09T22:03:46.600Z,6.65
2022-11-09T22:06:57.685Z,6.61
2022-11-09T22:10:11.770Z,6.58
2022-11-09T22:13:40.087Z,6.55
2022-11-09T22:16:51.271Z,6.52
2022-11-09T22:20:20.465Z,6.49
2022-11-09T22:23:31.726Z,6.46
2022-11-09T22:26:44.057Z,6.44
2022-11-09T22:29:55.076Z,6.43
2022-11-09T22:33:06.468Z,6.41
2022-11-09T22:36:18.740Z,6.37
2022-11-09T22:39:29.594Z,6.33
2022-11-09T22:42:40.960Z,6.30
2022-11-09T22:45:51.956Z,6.26
2022-11-09T22:49:03.033Z,6.23
2022-11-09T22:52:14.974Z,6.21
2022-11-09T22:55:26.500Z,6.14
2022-11-09T22:58:37.130Z,6.09
2022-11-09T23:01:48.306Z,6.06
2022-11-09T23:04:59.922Z,6.06
2022-11-09T23:08:11.248Z,6.04
2022-11-09T23:11:25.113Z,6.02
2022-11-09T23:14:59.709Z,6.01
2022-11-09T23:18:29.641Z,5.99
2022-11-09T23:21:40.938Z,5.98
2022-11-09T23:25:08.989Z,5.98
2022-11-09T23:28:20.987Z,5.96
2022-11-09T23:31:31.776Z,5.94
2022-11-09T23:34:42.866Z,5.94
2022-11-09T23:38:02.413Z,5.93
2022-11-09T23:41:14.473Z,5.91
2022-11-09T23:44:25.564Z,5.86
2022-11-09T23:47:37.588Z,5.85
2022-11-09T23:50:49.548Z,5.84
2022-11-09T23:54:00.551Z,5.80
2022-11-09T23:57:12.076Z,5.78
